sensor_id;sensor_type;location;lat;lon;timestamp;temperature;humidity
21811;DHT22;11067;48.788;9.208;2023-04-19T00:00:03;10.60;99.90
21811;DHT22;11067;48.788;9.208;2023-04-19T00:02:32;10.60;99.90
21811;DHT22;11067;48.788;9.208;2023-04-19T00:04:58;10.60;99.90
21811;DHT22;11067;48.788;9.208;2023-04-19T00:07:23;10.60;99.90
21811;DHT22;11067;48.788;9.208;2023-04-19T00:09:49;10.50;99.90
21811;DHT22;11067;48.788;9.208;2023-04-19T00:12:15;10.60;99.90
21811;DHT22;11067;48.788;9.208;2023-04-19T00:14:40;10.60;99.90
21811;DHT22;11067;48.788;9.208;2023-04-19T00:17:06;10.50;99.90
21811;DHT22;11067;48.788;9.208;2023-04-19T00:19:31;10.40;99.90
21811;DHT22;11067;48.788;9.208;2023-04-19T00:21:57;10.40;99.90
21811;DHT22;11067;48.788;9.208;2023-04-19T00:24:22;10.40;99.90
21811;DHT22;11067;48.788;9.208;2023-04-19T00:26:48;10.50;99.90
21811;DHT22;11067;48.788;9.208;2023-04-19T00:29:13;10.40;99.90
21811;DHT22;11067;48.788;9.208;2023-04-19T00:31:39;10.40;99.90
21811;DHT22;11067;48.788;9.208;2023-04-19T00:34:04;10.40;99.90
21811;DHT22;11067;48.788;9.208;2023-04-19T00:36:30;10.40;99.90
21811;DHT22;11067;48.788;9.208;2023-04-19T00:38:56;10.40;99.90
21811;DHT22;11067;48.788;9.208;2023-04-19T00:41:21;10.40;99.90
21811;DHT22;11067;48.788;9.208;2023-04-19T00:43:47;10.50;99.90
21811;DHT22;11067;48.788;9.208;2023-04-19T00:46:14;10.40;99.90
21811;DHT22;11067;48.788;9.208;2023-04-19T00:48:40;10.40;99.90
21811;DHT22;11067;48.788;9.208;2023-04-19T00:51:06;10.40;99.90
21811;DHT22;11067;48.788;9.208;2023-04-19T00:53:32;10.40;99.90
21811;DHT22;11067;48.788;9.208;2023-04-19T00:56:01;10.30;99.90
21811;DHT22;11067;48.788;9.208;2023-04-19T00:58:29;10.30;99.90
21811;DHT22;11067;48.788;9.208;2023-04-19T01:00:55;10.30;99.90
21811;DHT22;11067;48.788;9.208;2023-04-19T01:03:21;10.30;99.90
21811;DHT22;11067;48.788;9.208;2023-04-19T01:05:47;10.20;99.90
21811;DHT22;11067;48.788;9.208;2023-04-19T01:08:13;10.30;99.90
21811;DHT22;11067;48.788;9.208;2023-04-19T01:10:39;10.20;99.90
21811;DHT22;11067;48.788;9.208;2023-04-19T01:13:04;10.30;99.90
21811;DHT22;11067;48.788;9.208;2023-04-19T01:15:30;10.30;99.90
21811;DHT22;11067;48.788;9.208;2023-04-19T01:17:56;10.30;99.90
21811;DHT22;11067;48.788;9.208;2023-04-19T01:20:22;10.30;99.90
21811;DHT22;11067;48.788;9.208;2023-04-19T01:22:47;10.30;99.90
21811;DHT22;11067;48.788;9.208;2023-04-19T01:25:13;10.30;99.90
21811;DHT22;11067;48.788;9.208;2023-04-19T01:27:39;10.30;99.90
21811;DHT22;11067;48.788;9.208;2023-04-19T01:30:05;10.20;99.90
21811;DHT22;11067;48.788;9.208;2023-04-19T01:32:31;10.20;99.90
21811;DHT22;11067;48.788;9.208;2023-04-19T01:34:56;10.20;99.90
21811;DHT22;11067;48.788;9.208;2023-04-19T01:37:22;10.20;99.90
21811;DHT22;11067;48.788;9.208;2023-04-19T01:39:48;10.20;99.90
21811;DHT22;11067;48.788;9.208;2023-04-19T01:42:13;10.30;99.90
21811;DHT22;11067;48.788;9.208;2023-04-19T01:44:39;10.20;99.90
21811;DHT22;11067;48.788;9.208;2023-04-19T01:47:04;10.30;99.90
21811;DHT22;11067;48.788;9.208;2023-04-19T01:49:30;10.20;99.90
21811;DHT22;11067;48.788;9.208;2023-04-19T01:51:56;10.20;99.90
21811;DHT22;11067;48.788;9.208;2023-04-19T01:54:21;10.20;99.90
21811;DHT22;11067;48.788;9.208;2023-04-19T01:56:47;10.20;99.90
21811;DHT22;11067;48.788;9.208;2023-04-19T01:59:12;10.20;99.90
21811;DHT22;11067;48.788;9.208;2023-04-19T02:01:38;10.20;99.90
21811;DHT22;11067;48.788;9.208;2023-04-19T02:04:03;10.20;99.90
21811;DHT22;11067;48.788;9.208;2023-04-19T02:06:29;10.10;99.90
21811;DHT22;11067;48.788;9.208;2023-04-19T02:08:54;10.00;99.90
21811;DHT22;11067;48.788;9.208;2023-04-19T02:11:20;10.00;99.90
21811;DHT22;11067;48.788;9.208;2023-04-19T02:13:45;10.00;99.90
21811;DHT22;11067;48.788;9.208;2023-04-19T02:16:11;9.90;99.90
21811;DHT22;11067;48.788;9.208;2023-04-19T02:18:37;10.00;99.90
21811;DHT22;11067;48.788;9.208;2023-04-19T02:21:07;10.00;99.90
21811;DHT22;11067;48.788;9.208;2023-04-19T02:23:33;10.00;99.90
21811;DHT22;11067;48.788;9.208;2023-04-19T02:26:00;9.90;99.90
21811;DHT22;11067;48.788;9.208;2023-04-19T02:28:29;10.00;99.90
21811;DHT22;11067;48.788;9.208;2023-04-19T02:30:54;9.90;99.90
21811;DHT22;11067;48.788;9.208;2023-04-19T02:33:21;9.90;99.90
21811;DHT22;11067;48.788;9.208;2023-04-19T02:35:46;9.90;99.90
21811;DHT22;11067;48.788;9.208;2023-04-19T02:38:12;9.90;99.90
21811;DHT22;11067;48.788;9.208;2023-04-19T02:40:38;9.90;99.90
21811;DHT22;11067;48.788;9.208;2023-04-19T02:43:03;9.90;99.90
21811;DHT22;11067;48.788;9.208;2023-04-19T02:45:29;9.90;99.90
21811;DHT22;11067;48.788;9.208;2023-04-19T02:47:55;9.90;99.90
21811;DHT22;11067;48.788;9.208;2023-04-19T02:50:20;10.00;99.90
21811;DHT22;11067;48.788;9.208;2023-04-19T02:52:46;9.90;99.90
21811;DHT22;11067;48.788;9.208;2023-04-19T02:55:11;10.00;99.90
21811;DHT22;11067;48.788;9.208;2023-04-19T02:57:37;9.90;99.90
21811;DHT22;11067;48.788;9.208;2023-04-19T03:00:03;9.90;99.90
21811;DHT22;11067;48.788;9.208;2023-04-19T03:02:30;9.80;99.90
21811;DHT22;11067;48.788;9.208;2023-04-19T03:04:55;9.90;99.90
21811;DHT22;11067;48.788;9.208;2023-04-19T03:07:21;9.80;99.90
21811;DHT22;11067;48.788;9.208;2023-04-19T03:09:47;9.80;99.90
21811;DHT22;11067;48.788;9.208;2023-04-19T03:12:12;9.80;99.90
21811;DHT22;11067;48.788;9.208;2023-04-19T03:14:38;9.80;99.90
21811;DHT22;11067;48.788;9.208;2023-04-19T03:17:03;9.70;99.90
21811;DHT22;11067;48.788;9.208;2023-04-19T03:19:29;9.70;99.90
21811;DHT22;11067;48.788;9.208;2023-04-19T03:21:54;9.70;99.90
21811;DHT22;11067;48.788;9.208;2023-04-19T03:24:26;9.70;99.90
21811;DHT22;11067;48.788;9.208;2023-04-19T03:26:53;9.80;99.90
21811;DHT22;11067;48.788;9.208;2023-04-19T03:29:19;9.80;99.90
21811;DHT22;11067;48.788;9.208;2023-04-19T03:31:45;9.80;99.90
21811;DHT22;11067;48.788;9.208;2023-04-19T03:34:10;9.70;99.90
21811;DHT22;11067;48.788;9.208;2023-04-19T03:36:36;9.70;99.90
21811;DHT22;11067;48.788;9.208;2023-04-19T03:39:02;9.70;99.90
21811;DHT22;11067;48.788;9.208;2023-04-19T03:41:28;9.60;99.90
21811;DHT22;11067;48.788;9.208;2023-04-19T03:43:53;9.60;99.90
21811;DHT22;11067;48.788;9.208;2023-04-19T03:46:19;9.60;99.90
21811;DHT22;11067;48.788;9.208;2023-04-19T03:48:45;9.50;99.90
21811;DHT22;11067;48.788;9.208;2023-04-19T03:51:11;9.50;99.90
21811;DHT22;11067;48.788;9.208;2023-04-19T03:53:38;9.50;99.90
21811;DHT22;11067;48.788;9.208;2023-04-19T03:56:03;9.40;99.90
21811;DHT22;11067;48.788;9.208;2023-04-19T03:58:29;9.40;99.90
21811;DHT22;11067;48.788;9.208;2023-04-19T04:00:55;9.40;99.90
21811;DHT22;11067;48.788;9.208;2023-04-19T04:03:20;9.30;99.90
21811;DHT22;11067;48.788;9.208;2023-04-19T04:05:46;9.20;99.90
21811;DHT22;11067;48.788;9.208;2023-04-19T04:08:11;9.30;99.90
21811;DHT22;11067;48.788;9.208;2023-04-19T04:10:38;9.30;99.90
21811;DHT22;11067;48.788;9.208;2023-04-19T04:13:03;9.30;99.90
21811;DHT22;11067;48.788;9.208;2023-04-19T04:15:29;9.20;99.90
21811;DHT22;11067;48.788;9.208;2023-04-19T04:17:55;9.20;99.90
21811;DHT22;11067;48.788;9.208;2023-04-19T04:20:20;9.20;99.90
21811;DHT22;11067;48.788;9.208;2023-04-19T04:22:46;9.20;99.90
21811;DHT22;11067;48.788;9.208;2023-04-19T04:25:12;9.20;99.90
21811;DHT22;11067;48.788;9.208;2023-04-19T04:27:38;9.30;99.90
21811;DHT22;11067;48.788;9.208;2023-04-19T04:30:05;9.20;99.90
21811;DHT22;11067;48.788;9.208;2023-04-19T04:32:31;9.20;99.90
21811;DHT22;11067;48.788;9.208;2023-04-19T04:35:05;9.20;99.90
21811;DHT22;11067;48.788;9.208;2023-04-19T04:37:32;9.20;99.90
21811;DHT22;11067;48.788;9.208;2023-04-19T04:40:01;9.30;99.90
21811;DHT22;11067;48.788;9.208;2023-04-19T04:42:29;9.30;99.90
21811;DHT22;11067;48.788;9.208;2023-04-19T04:44:56;9.30;99.90
21811;DHT22;11067;48.788;9.208;2023-04-19T04:47:22;9.30;99.90
21811;DHT22;11067;48.788;9.208;2023-04-19T04:49:48;9.20;99.90
21811;DHT22;11067;48.788;9.208;2023-04-19T04:52:14;9.20;99.90
21811;DHT22;11067;48.788;9.208;2023-04-19T04:54:39;9.30;99.90
21811;DHT22;11067;48.788;9.208;2023-04-19T04:57:05;9.30;99.90
21811;DHT22;11067;48.788;9.208;2023-04-19T04:59:31;9.40;99.90
21811;DHT22;11067;48.788;9.208;2023-04-19T05:01:56;9.30;99.90
21811;DHT22;11067;48.788;9.208;2023-04-19T05:04:23;9.30;99.90
21811;DHT22;11067;48.788;9.208;2023-04-19T05:06:48;9.20;99.90
21811;DHT22;11067;48.788;9.208;2023-04-19T05:09:14;9.20;99.90
21811;DHT22;11067;48.788;9.208;2023-04-19T05:11:39;9.30;99.90
21811;DHT22;11067;48.788;9.208;2023-04-19T05:14:05;9.20;99.90
21811;DHT22;11067;48.788;9.208;2023-04-19T05:16:31;9.20;99.90
21811;DHT22;11067;48.788;9.208;2023-04-19T05:18:57;9.30;99.90
21811;DHT22;11067;48.788;9.208;2023-04-19T05:21:22;9.30;99.90
21811;DHT22;11067;48.788;9.208;2023-04-19T05:23:48;9.30;99.90
21811;DHT22;11067;48.788;9.208;2023-04-19T05:26:14;9.30;99.90
21811;DHT22;11067;48.788;9.208;2023-04-19T05:28:41;9.40;99.90
21811;DHT22;11067;48.788;9.208;2023-04-19T05:31:09;9.40;99.90
21811;DHT22;11067;48.788;9.208;2023-04-19T05:33:34;9.40;99.90
21811;DHT22;11067;48.788;9.208;2023-04-19T05:36:00;9.40;99.90
21811;DHT22;11067;48.788;9.208;2023-04-19T05:38:26;9.30;99.90
21811;DHT22;11067;48.788;9.208;2023-04-19T05:40:51;9.50;99.90
21811;DHT22;11067;48.788;9.208;2023-04-19T05:43:17;9.60;99.90
21811;DHT22;11067;48.788;9.208;2023-04-19T05:45:42;9.70;99.90
21811;DHT22;11067;48.788;9.208;2023-04-19T05:48:08;9.50;99.90
21811;DHT22;11067;48.788;9.208;2023-04-19T05:50:34;9.50;99.90
21811;DHT22;11067;48.788;9.208;2023-04-19T05:53:03;9.60;99.90
21811;DHT22;11067;48.788;9.208;2023-04-19T05:55:29;9.60;99.90
21811;DHT22;11067;48.788;9.208;2023-04-19T05:57:55;9.60;99.90
21811;DHT22;11067;48.788;9.208;2023-04-19T06:00:21;9.40;99.90
21811;DHT22;11067;48.788;9.208;2023-04-19T06:02:46;9.50;99.90
21811;DHT22;11067;48.788;9.208;2023-04-19T06:05:12;9.40;99.90
21811;DHT22;11067;48.788;9.208;2023-04-19T06:07:38;9.50;99.90
21811;DHT22;11067;48.788;9.208;2023-04-19T06:10:04;9.50;99.90
21811;DHT22;11067;48.788;9.208;2023-04-19T06:12:30;9.60;99.90
21811;DHT22;11067;48.788;9.208;2023-04-19T06:14:56;9.50;99.90
21811;DHT22;11067;48.788;9.208;2023-04-19T06:17:21;9.60;99.90
21811;DHT22;11067;48.788;9.208;2023-04-19T06:19:50;9.70;99.90
21811;DHT22;11067;48.788;9.208;2023-04-19T06:22:16;9.50;99.90
21811;DHT22;11067;48.788;9.208;2023-04-19T06:24:43;9.70;99.90
21811;DHT22;11067;48.788;9.208;2023-04-19T06:27:09;9.70;99.90
21811;DHT22;11067;48.788;9.208;2023-04-19T06:29:35;9.60;99.90
21811;DHT22;11067;48.788;9.208;2023-04-19T06:32:00;9.70;99.90
21811;DHT22;11067;48.788;9.208;2023-04-19T06:34:26;9.90;99.90
21811;DHT22;11067;48.788;9.208;2023-04-19T06:36:51;9.80;99.90
21811;DHT22;11067;48.788;9.208;2023-04-19T06:39:17;9.90;99.90
21811;DHT22;11067;48.788;9.208;2023-04-19T06:41:43;9.90;99.90
21811;DHT22;11067;48.788;9.208;2023-04-19T06:44:08;10.10;99.90
21811;DHT22;11067;48.788;9.208;2023-04-19T06:46:34;10.10;99.90
21811;DHT22;11067;48.788;9.208;2023-04-19T06:48:59;10.20;99.90
21811;DHT22;11067;48.788;9.208;2023-04-19T06:51:25;10.20;99.90
21811;DHT22;11067;48.788;9.208;2023-04-19T06:53:51;10.00;99.90
21811;DHT22;11067;48.788;9.208;2023-04-19T06:56:16;10.20;99.90
21811;DHT22;11067;48.788;9.208;2023-04-19T06:58:42;10.10;99.90
21811;DHT22;11067;48.788;9.208;2023-04-19T07:01:08;10.20;99.90
21811;DHT22;11067;48.788;9.208;2023-04-19T07:03:33;10.40;99.90
21811;DHT22;11067;48.788;9.208;2023-04-19T07:05:59;10.70;99.90
21811;DHT22;11067;48.788;9.208;2023-04-19T07:08:25;10.70;99.90
21811;DHT22;11067;48.788;9.208;2023-04-19T07:10:51;10.50;99.90
21811;DHT22;11067;48.788;9.208;2023-04-19T07:13:17;10.50;99.90
21811;DHT22;11067;48.788;9.208;2023-04-19T07:15:43;10.40;99.90
21811;DHT22;11067;48.788;9.208;2023-04-19T07:18:08;10.40;99.90
21811;DHT22;11067;48.788;9.208;2023-04-19T07:20:35;10.60;99.90
21811;DHT22;11067;48.788;9.208;2023-04-19T07:23:01;10.30;99.90
21811;DHT22;11067;48.788;9.208;2023-04-19T07:25:26;10.40;99.90
21811;DHT22;11067;48.788;9.208;2023-04-19T07:27:53;10.80;99.90
21811;DHT22;11067;48.788;9.208;2023-04-19T07:30:19;10.80;99.90
21811;DHT22;11067;48.788;9.208;2023-04-19T07:32:44;11.10;99.90
21811;DHT22;11067;48.788;9.208;2023-04-19T07:35:10;11.00;99.90
21811;DHT22;11067;48.788;9.208;2023-04-19T07:37:36;11.40;99.90
21811;DHT22;11067;48.788;9.208;2023-04-19T07:40:02;11.20;99.90
21811;DHT22;11067;48.788;9.208;2023-04-19T07:42:29;11.30;99.90
21811;DHT22;11067;48.788;9.208;2023-04-19T07:44:55;10.80;99.90
21811;DHT22;11067;48.788;9.208;2023-04-19T07:47:20;11.10;99.90
21811;DHT22;11067;48.788;9.208;2023-04-19T07:49:50;11.20;99.90
21811;DHT22;11067;48.788;9.208;2023-04-19T07:52:15;11.20;99.90
21811;DHT22;11067;48.788;9.208;2023-04-19T07:54:42;11.40;99.90
21811;DHT22;11067;48.788;9.208;2023-04-19T07:57:08;11.60;99.90
21811;DHT22;11067;48.788;9.208;2023-04-19T07:59:33;11.50;99.90
21811;DHT22;11067;48.788;9.208;2023-04-19T08:01:59;11.90;99.90
21811;DHT22;11067;48.788;9.208;2023-04-19T08:04:25;12.10;99.90
21811;DHT22;11067;48.788;9.208;2023-04-19T08:06:50;11.90;99.90
21811;DHT22;11067;48.788;9.208;2023-04-19T08:09:17;11.90;99.90
21811;DHT22;11067;48.788;9.208;2023-04-19T08:11:42;12.10;99.90
21811;DHT22;11067;48.788;9.208;2023-04-19T08:14:08;12.20;99.90
21811;DHT22;11067;48.788;9.208;2023-04-19T08:16:34;12.30;99.90
21811;DHT22;11067;48.788;9.208;2023-04-19T08:19:00;12.50;99.90
21811;DHT22;11067;48.788;9.208;2023-04-19T08:21:25;12.40;99.90
21811;DHT22;11067;48.788;9.208;2023-04-19T08:23:51;12.40;99.90
21811;DHT22;11067;48.788;9.208;2023-04-19T08:26:17;12.50;99.90
21811;DHT22;11067;48.788;9.208;2023-04-19T08:28:42;12.60;99.90
21811;DHT22;11067;48.788;9.208;2023-04-19T08:31:08;12.50;99.90
21811;DHT22;11067;48.788;9.208;2023-04-19T08:33:34;12.40;99.90
21811;DHT22;11067;48.788;9.208;2023-04-19T08:36:00;12.50;99.90
21811;DHT22;11067;48.788;9.208;2023-04-19T08:38:26;12.70;99.90
21811;DHT22;11067;48.788;9.208;2023-04-19T08:40:53;12.90;99.90
21811;DHT22;11067;48.788;9.208;2023-04-19T08:43:20;12.80;99.90
21811;DHT22;11067;48.788;9.208;2023-04-19T08:45:49;12.80;99.90
21811;DHT22;11067;48.788;9.208;2023-04-19T08:48:16;12.60;99.90
21811;DHT22;11067;48.788;9.208;2023-04-19T08:50:42;12.50;99.90
21811;DHT22;11067;48.788;9.208;2023-04-19T08:53:09;12.70;99.90
21811;DHT22;11067;48.788;9.208;2023-04-19T08:55:36;12.80;99.90
21811;DHT22;11067;48.788;9.208;2023-04-19T08:58:03;12.70;99.90
21811;DHT22;11067;48.788;9.208;2023-04-19T09:00:30;12.70;99.90
21811;DHT22;11067;48.788;9.208;2023-04-19T09:02:56;12.50;99.90
21811;DHT22;11067;48.788;9.208;2023-04-19T09:05:22;12.50;99.90
21811;DHT22;11067;48.788;9.208;2023-04-19T09:07:48;12.50;99.90
21811;DHT22;11067;48.788;9.208;2023-04-19T09:10:18;12.50;99.90
21811;DHT22;11067;48.788;9.208;2023-04-19T09:13:03;12.60;99.90
21811;DHT22;11067;48.788;9.208;2023-04-19T09:15:39;12.90;99.90
21811;DHT22;11067;48.788;9.208;2023-04-19T09:18:07;13.30;99.90
21811;DHT22;11067;48.788;9.208;2023-04-19T09:20:40;13.40;99.90
21811;DHT22;11067;48.788;9.208;2023-04-19T09:23:08;12.50;99.90
21811;DHT22;11067;48.788;9.208;2023-04-19T09:25:36;12.40;99.90
21811;DHT22;11067;48.788;9.208;2023-04-19T09:28:09;12.20;99.90
21811;DHT22;11067;48.788;9.208;2023-04-19T09:30:35;12.80;99.90
21811;DHT22;11067;48.788;9.208;2023-04-19T09:33:00;12.60;99.90
21811;DHT22;11067;48.788;9.208;2023-04-19T09:35:42;13.00;99.90
21811;DHT22;11067;48.788;9.208;2023-04-19T09:38:09;13.20;99.90
21811;DHT22;11067;48.788;9.208;2023-04-19T09:40:35;13.20;99.90
21811;DHT22;11067;48.788;9.208;2023-04-19T09:43:02;13.50;99.90
21811;DHT22;11067;48.788;9.208;2023-04-19T09:45:46;13.30;99.90
21811;DHT22;11067;48.788;9.208;2023-04-19T09:48:12;13.70;99.90
21811;DHT22;11067;48.788;9.208;2023-04-19T09:50:57;13.70;99.90
21811;DHT22;11067;48.788;9.208;2023-04-19T09:53:24;13.40;99.90
21811;DHT22;11067;48.788;9.208;2023-04-19T09:55:50;13.50;99.90
21811;DHT22;11067;48.788;9.208;2023-04-19T09:58:19;13.50;99.90
21811;DHT22;11067;48.788;9.208;2023-04-19T10:00:46;13.20;99.90
21811;DHT22;11067;48.788;9.208;2023-04-19T10:03:14;13.50;99.90
21811;DHT22;11067;48.788;9.208;2023-04-19T10:05:49;13.30;99.90
21811;DHT22;11067;48.788;9.208;2023-04-19T10:08:16;13.40;99.90
21811;DHT22;11067;48.788;9.208;2023-04-19T10:10:48;13.90;99.90
21811;DHT22;11067;48.788;9.208;2023-04-19T10:13:19;14.00;99.90
21811;DHT22;11067;48.788;9.208;2023-04-19T10:15:48;14.30;99.90
21811;DHT22;11067;48.788;9.208;2023-04-19T10:18:14;13.60;99.90
21811;DHT22;11067;48.788;9.208;2023-04-19T10:20:50;13.10;99.90
21811;DHT22;11067;48.788;9.208;2023-04-19T10:23:19;13.10;99.90
21811;DHT22;11067;48.788;9.208;2023-04-19T10:25:48;13.00;99.90
21811;DHT22;11067;48.788;9.208;2023-04-19T10:28:16;13.10;99.90
21811;DHT22;11067;48.788;9.208;2023-04-19T10:30:53;13.00;99.90
21811;DHT22;11067;48.788;9.208;2023-04-19T10:33:24;13.50;99.90
21811;DHT22;11067;48.788;9.208;2023-04-19T10:35:50;14.00;99.90
21811;DHT22;11067;48.788;9.208;2023-04-19T10:38:17;13.50;99.90
21811;DHT22;11067;48.788;9.208;2023-04-19T10:40:54;13.80;99.90
21811;DHT22;11067;48.788;9.208;2023-04-19T10:43:22;13.80;99.90
21811;DHT22;11067;48.788;9.208;2023-04-19T10:45:47;13.80;99.90
21811;DHT22;11067;48.788;9.208;2023-04-19T10:51:02;13.30;99.90
21811;DHT22;11067;48.788;9.208;2023-04-19T10:56:12;13.20;99.90
21811;DHT22;11067;48.788;9.208;2023-04-19T11:01:32;13.30;99.90
21811;DHT22;11067;48.788;9.208;2023-04-19T11:04:07;13.50;99.90
21811;DHT22;11067;48.788;9.208;2023-04-19T11:06:37;13.70;99.90
21811;DHT22;11067;48.788;9.208;2023-04-19T11:09:03;13.40;99.90
21811;DHT22;11067;48.788;9.208;2023-04-19T11:11:34;13.20;99.90
21811;DHT22;11067;48.788;9.208;2023-04-19T11:14:02;13.50;99.90
21811;DHT22;11067;48.788;9.208;2023-04-19T11:16:29;13.10;99.90
21811;DHT22;11067;48.788;9.208;2023-04-19T11:18:54;13.20;99.90
21811;DHT22;11067;48.788;9.208;2023-04-19T11:21:20;12.80;99.90
21811;DHT22;11067;48.788;9.208;2023-04-19T11:23:46;12.50;99.90
21811;DHT22;11067;48.788;9.208;2023-04-19T11:26:14;12.50;99.90
21811;DHT22;11067;48.788;9.208;2023-04-19T11:28:40;12.50;99.90
21811;DHT22;11067;48.788;9.208;2023-04-19T11:31:06;12.40;99.90
21811;DHT22;11067;48.788;9.208;2023-04-19T11:33:33;12.50;99.90
21811;DHT22;11067;48.788;9.208;2023-04-19T11:35:59;12.60;99.90
21811;DHT22;11067;48.788;9.208;2023-04-19T11:38:27;12.70;99.90
21811;DHT22;11067;48.788;9.208;2023-04-19T11:41:03;12.70;99.90
21811;DHT22;11067;48.788;9.208;2023-04-19T11:43:35;12.50;99.90
21811;DHT22;11067;48.788;9.208;2023-04-19T11:46:09;12.60;99.90
21811;DHT22;11067;48.788;9.208;2023-04-19T11:48:35;12.50;99.90
21811;DHT22;11067;48.788;9.208;2023-04-19T11:51:01;12.60;99.90
21811;DHT22;11067;48.788;9.208;2023-04-19T11:53:28;12.50;99.90
21811;DHT22;11067;48.788;9.208;2023-04-19T11:56:05;12.20;99.90
21811;DHT22;11067;48.788;9.208;2023-04-19T11:58:41;12.00;99.90
21811;DHT22;11067;48.788;9.208;2023-04-19T12:01:20;11.50;99.90
21811;DHT22;11067;48.788;9.208;2023-04-19T12:03:52;11.40;99.90
21811;DHT22;11067;48.788;9.208;2023-04-19T12:06:26;11.30;99.90
21811;DHT22;11067;48.788;9.208;2023-04-19T12:08:53;11.30;99.90
21811;DHT22;11067;48.788;9.208;2023-04-19T12:11:23;11.20;99.90
21811;DHT22;11067;48.788;9.208;2023-04-19T12:14:11;11.10;99.90
21811;DHT22;11067;48.788;9.208;2023-04-19T12:16:37;11.20;99.90
21811;DHT22;11067;48.788;9.208;2023-04-19T12:19:13;11.10;99.90
21811;DHT22;11067;48.788;9.208;2023-04-19T12:21:39;11.00;99.90
21811;DHT22;11067;48.788;9.208;2023-04-19T12:24:08;11.10;99.90
21811;DHT22;11067;48.788;9.208;2023-04-19T12:26:34;11.00;99.90
21811;DHT22;11067;48.788;9.208;2023-04-19T12:29:01;10.80;99.90
21811;DHT22;11067;48.788;9.208;2023-04-19T12:31:27;10.90;99.90
21811;DHT22;11067;48.788;9.208;2023-04-19T12:33:54;11.00;99.90
21811;DHT22;11067;48.788;9.208;2023-04-19T12:36:20;11.00;99.90
21811;DHT22;11067;48.788;9.208;2023-04-19T12:38:46;11.00;99.90
21811;DHT22;11067;48.788;9.208;2023-04-19T12:41:12;10.80;99.90
21811;DHT22;11067;48.788;9.208;2023-04-19T12:43:37;10.70;99.90
21811;DHT22;11067;48.788;9.208;2023-04-19T12:46:03;10.70;99.90
21811;DHT22;11067;48.788;9.208;2023-04-19T12:48:29;10.70;99.90
21811;DHT22;11067;48.788;9.208;2023-04-19T12:50:55;10.70;99.90
21811;DHT22;11067;48.788;9.208;2023-04-19T12:53:23;10.80;99.90
21811;DHT22;11067;48.788;9.208;2023-04-19T12:55:49;10.70;99.90
21811;DHT22;11067;48.788;9.208;2023-04-19T12:58:16;10.80;99.90
21811;DHT22;11067;48.788;9.208;2023-04-19T13:00:42;10.70;99.90
21811;DHT22;11067;48.788;9.208;2023-04-19T13:03:08;10.70;99.90
21811;DHT22;11067;48.788;9.208;2023-04-19T13:05:34;10.70;99.90
21811;DHT22;11067;48.788;9.208;2023-04-19T13:07:59;10.70;99.90
21811;DHT22;11067;48.788;9.208;2023-04-19T13:10:25;10.60;99.90
21811;DHT22;11067;48.788;9.208;2023-04-19T13:12:50;10.70;99.90
21811;DHT22;11067;48.788;9.208;2023-04-19T13:15:16;10.50;99.90
21811;DHT22;11067;48.788;9.208;2023-04-19T13:17:42;10.60;99.90
21811;DHT22;11067;48.788;9.208;2023-04-19T13:20:08;10.50;99.90
21811;DHT22;11067;48.788;9.208;2023-04-19T13:22:34;10.60;99.90
21811;DHT22;11067;48.788;9.208;2023-04-19T13:24:59;10.30;99.90
21811;DHT22;11067;48.788;9.208;2023-04-19T13:27:25;10.40;99.90
21811;DHT22;11067;48.788;9.208;2023-04-19T13:29:54;10.30;99.90
21811;DHT22;11067;48.788;9.208;2023-04-19T13:32:20;10.40;99.90
21811;DHT22;11067;48.788;9.208;2023-04-19T13:34:46;10.60;99.90
21811;DHT22;11067;48.788;9.208;2023-04-19T13:37:12;10.70;99.90
21811;DHT22;11067;48.788;9.208;2023-04-19T13:39:37;10.70;99.90
21811;DHT22;11067;48.788;9.208;2023-04-19T13:42:04;10.70;99.90
21811;DHT22;11067;48.788;9.208;2023-04-19T13:44:29;10.60;99.90
21811;DHT22;11067;48.788;9.208;2023-04-19T13:46:55;10.50;99.90
21811;DHT22;11067;48.788;9.208;2023-04-19T13:49:21;10.30;99.90
21811;DHT22;11067;48.788;9.208;2023-04-19T13:51:46;10.30;99.90
21811;DHT22;11067;48.788;9.208;2023-04-19T13:54:12;10.30;99.90
21811;DHT22;11067;48.788;9.208;2023-04-19T13:56:37;10.30;99.90
21811;DHT22;11067;48.788;9.208;2023-04-19T13:59:03;10.30;99.90
21811;DHT22;11067;48.788;9.208;2023-04-19T14:01:28;10.30;99.90
21811;DHT22;11067;48.788;9.208;2023-04-19T14:03:54;10.30;99.90
21811;DHT22;11067;48.788;9.208;2023-04-19T14:06:19;10.50;99.90
21811;DHT22;11067;48.788;9.208;2023-04-19T14:08:45;10.60;99.90
21811;DHT22;11067;48.788;9.208;2023-04-19T14:11:11;10.80;99.90
21811;DHT22;11067;48.788;9.208;2023-04-19T14:13:36;10.90;99.90
21811;DHT22;11067;48.788;9.208;2023-04-19T14:16:03;11.20;99.90
21811;DHT22;11067;48.788;9.208;2023-04-19T14:18:29;11.20;99.90
21811;DHT22;11067;48.788;9.208;2023-04-19T14:20:54;11.20;99.90
21811;DHT22;11067;48.788;9.208;2023-04-19T14:23:20;11.30;99.90
21811;DHT22;11067;48.788;9.208;2023-04-19T14:25:46;11.50;99.90
21811;DHT22;11067;48.788;9.208;2023-04-19T14:28:12;11.50;99.90
21811;DHT22;11067;48.788;9.208;2023-04-19T14:30:38;12.10;99.90
21811;DHT22;11067;48.788;9.208;2023-04-19T14:33:04;11.90;99.90
21811;DHT22;11067;48.788;9.208;2023-04-19T14:35:29;11.70;99.90
21811;DHT22;11067;48.788;9.208;2023-04-19T14:37:55;11.60;99.90
21811;DHT22;11067;48.788;9.208;2023-04-19T14:40:21;11.70;99.90
21811;DHT22;11067;48.788;9.208;2023-04-19T14:42:47;11.80;99.90
21811;DHT22;11067;48.788;9.208;2023-04-19T14:45:13;11.60;99.90
21811;DHT22;11067;48.788;9.208;2023-04-19T14:47:38;11.70;99.90
21811;DHT22;11067;48.788;9.208;2023-04-19T14:50:04;11.70;99.90
21811;DHT22;11067;48.788;9.208;2023-04-19T14:52:30;11.70;99.90
21811;DHT22;11067;48.788;9.208;2023-04-19T14:54:55;11.50;99.90
21811;DHT22;11067;48.788;9.208;2023-04-19T14:57:22;11.10;99.90
21811;DHT22;11067;48.788;9.208;2023-04-19T14:59:48;11.10;99.90
21811;DHT22;11067;48.788;9.208;2023-04-19T15:02:13;11.20;99.90
21811;DHT22;11067;48.788;9.208;2023-04-19T15:04:39;11.10;99.90
21811;DHT22;11067;48.788;9.208;2023-04-19T15:07:05;11.10;99.90
21811;DHT22;11067;48.788;9.208;2023-04-19T15:09:30;11.00;99.90
21811;DHT22;11067;48.788;9.208;2023-04-19T15:11:56;11.10;99.90
21811;DHT22;11067;48.788;9.208;2023-04-19T15:14:22;11.40;99.90
21811;DHT22;11067;48.788;9.208;2023-04-19T15:16:48;11.30;99.90
21811;DHT22;11067;48.788;9.208;2023-04-19T15:19:13;11.40;99.90
21811;DHT22;11067;48.788;9.208;2023-04-19T15:21:39;11.20;99.90
21811;DHT22;11067;48.788;9.208;2023-04-19T15:24:05;11.10;99.90
21811;DHT22;11067;48.788;9.208;2023-04-19T15:26:31;11.20;99.90
21811;DHT22;11067;48.788;9.208;2023-04-19T15:28:57;11.40;99.90
21811;DHT22;11067;48.788;9.208;2023-04-19T15:31:23;11.40;99.90
21811;DHT22;11067;48.788;9.208;2023-04-19T15:33:49;11.50;99.90
21811;DHT22;11067;48.788;9.208;2023-04-19T15:36:15;11.70;99.90
21811;DHT22;11067;48.788;9.208;2023-04-19T15:38:40;11.70;99.90